Погода Торренсна неделю

Калифорния, США

01 - 07 сентября
  • 01сентября
    Сегодня
    +17°
    +25°
    Ясно и безоблачно
    ВремяПогодаТемператураВлажностьДавлениеВетер, м/сВероятность осадков
    02:00Ясно и безоблачно+18°C72 %759 мм1.8 м/с2 %
    05:00Ясно и безоблачно+17°C78 %758 мм1.3 м/с2 %
    08:00Ясно и безоблачно+19°C76 %759 мм0.5 м/с2 %
    11:00Ясно и безоблачно+24°C60 %760 мм3.0 м/с2 %
    14:00Ясно и безоблачно+25°C53 %759 мм6.6 м/с2 %
    17:00Ясно и безоблачно+23°C55 %758 мм7.0 м/с2 %
    20:00Ясно и безоблачно+20°C67 %758 мм3.9 м/с2 %
    23:00Ясно и безоблачно+20°C67 %759 мм2.0 м/с2 %
  • 02сентября
    Среда
    +18°
    +26°
    Ясно и безоблачно
    ВремяПогодаТемператураВлажностьДавлениеВетер, м/сВероятность осадков
    02:00Ясно и безоблачно+19°C68 %759 мм1.0 м/с2 %
    05:00Ясно и безоблачно+17°C74 %759 мм0.6 м/с2 %
    08:00Ясно и безоблачно+20°C74 %759 мм0.2 м/с2 %
    11:00Ясно и безоблачно+24°C56 %760 мм2.0 м/с2 %
    14:00Ясно и безоблачно+26°C50 %759 мм5.6 м/с2 %
    17:00Ясно и безоблачно+24°C53 %758 мм6.7 м/с2 %
    20:00Ясно и безоблачно+22°C62 %758 мм4.4 м/с2 %
    23:00Ясно и безоблачно+21°C74 %758 мм1.7 м/с2 %
  • 03сентября
    Четверг
    +17°
    +26°
    Ясно и безоблачно
    ВремяПогодаТемператураВлажностьДавлениеВетер, м/сВероятность осадков
    02:00Ясно и безоблачно+19°C74 %758 мм0.9 м/с2 %
    05:00Практически безоблачно+18°C79 %758 мм1.1 м/с2 %
    08:00Ясно и безоблачно+21°C77 %758 мм0.7 м/с2 %
    11:00Ясно и безоблачно+24°C59 %758 мм1.9 м/с2 %
    14:00Ясно и безоблачно+26°C60 %757 мм5.3 м/с2 %
    17:00Ясно и безоблачно+24°C64 %756 мм6.6 м/с2 %
    20:00Ясно и безоблачно+21°C70 %756 мм4.3 м/с2 %
    23:00Ясно и безоблачно+20°C73 %757 мм1.1 м/с2 %
  • 04сентября
    Пятница
    +17°
    +27°
    Ясно и безоблачно
    ВремяПогодаТемператураВлажностьДавлениеВетер, м/сВероятность осадков
    02:00Практически безоблачно+19°C76 %757 мм0.5 м/с2 %
    05:00Ясно и безоблачно+18°C77 %756 мм0.7 м/с2 %
    08:00Ясно и безоблачно+21°C76 %757 мм0.3 м/с2 %
    11:00Ясно и безоблачно+25°C54 %758 мм1.7 м/с2 %
    14:00Ясно и безоблачно+26°C55 %757 мм5.5 м/с2 %
    17:00Ясно и безоблачно+24°C67 %756 мм5.9 м/с2 %
    20:00Ясно и безоблачно+21°C74 %756 мм3.0 м/с2 %
    23:00Ясно и безоблачно+21°C78 %757 мм0.3 м/с2 %
  • 05сентября
    Суббота
    +20°
    +28°
    Ясно и безоблачно
    ВремяПогодаТемператураВлажностьДавлениеВетер, м/сВероятность осадков
    02:00Ясно и безоблачно+19°C77 %757 мм0.1 м/с2 %
    05:00Ясно и безоблачно+18°C77 %757 мм0.0 м/с6 %
    08:00Ясно и безоблачно+21°C76 %758 мм0.0 м/с12 %
    11:00Ясно и безоблачно+26°C51 %758 мм1.9 м/с14 %
    14:00Ясно и безоблачно+28°C48 %757 мм5.5 м/с17 %
    17:00Ясно и безоблачно+26°C55 %757 мм5.7 м/с13 %
    20:00Ясно и безоблачно+23°C68 %757 мм2.8 м/с17 %
    23:00Ясно и безоблачно+22°C66 %758 мм0.3 м/с22 %
  • 06сентября
    Воскресенье
    +18°
    +29°
    Ясно и безоблачно
    ВремяПогодаТемператураВлажностьДавлениеВетер, м/сВероятность осадков
    05:00Ясно и безоблачно+21°C70 %757 мм0.0 м/с28 %
    11:00Ясно и безоблачно+27°C87 %758 мм1.6 м/с32 %
    17:00Ясно и безоблачно+27°C93 %756 мм4.3 м/с30 %
    23:00Ясно и безоблачно+21°C77 %757 мм2.4 м/с23 %
  • 07сентября
    Понедельник
    +17°
    +27°
    Ясно и безоблачно
    ВремяПогодаТемператураВлажностьДавлениеВетер, м/сВероятность осадков
    05:00Ясно и безоблачно+19°C90 %756 мм1.7 м/с18 %
    11:00Ясно и безоблачно+25°C63 %757 мм2.4 м/с23 %
    17:00Ясно и безоблачно+25°C58 %756 мм4.7 м/с18 %
    23:00Практически безоблачно+20°C84 %756 мм2.1 м/с15 %
Мы используем cookies
Соглашаюсь